Arlington, Tennessee
Current Conditions -  °F | °C
As of 5:50 PM on Wednesday 22 Oct 2014 (Local Time) from KNQA Reporting Station
Clear Clear  
Wind Chill: 18°   Ceiling: Unl
Heat Index: 18°   Visibility: 10mi
Dew Point:   Wind: 7mph
Humidity: 49%   Direction: 40°NE
Pressure: 30.17"   Gusts: NA
Location:  35.3°N, 89.66°W
Report Text: KNQA 222250Z 04006KT 10SM SKC 18/07 A3017
Loading
Personal Weather Stations






























Interactive Weather Map
Tropical Storm Tracking
New forecast layout! Learn more

10-Day Weather Forecast

Advertisements
Track Severe Weather on mobile